TimeMDT,TemperatureF,Dew PointF,Humidity,Sea Level PressureIn,VisibilityMPH,Wind Direction,Wind SpeedMPH,Gust SpeedMPH,PrecipitationIn,Events,Conditions,WindDirDegrees,DateUTC
12:55 AM,26.1,23.0,88,30.01,2.5,NNE,4.6,-,0.00,Snow,Light Snow,20,2013-04-11 06:55:00
1:07 AM,24.8,23.0,93,29.94,3.0,NNE,3.5,-,0.00,Snow,Light Snow,20,2013-04-11 07:07:00
1:16 AM,24.8,23.0,93,29.93,3.0,Calm,Calm,-,0.01,Snow,Light Snow,0,2013-04-11 07:16:00
1:36 AM,24.8,21.2,86,29.92,9.0,NNE,5.8,-,0.01,,Overcast,30,2013-04-11 07:36:00
1:55 AM,25.0,21.9,88,29.97,9.0,NNE,6.9,-,0.01,,Overcast,20,2013-04-11 07:55:00
2:28 AM,24.8,21.2,86,29.87,10.0,North,6.9,-,N/A,,Overcast,360,2013-04-11 08:28:00
2:55 AM,24.1,21.0,88,29.94,10.0,North,9.2,-,N/A,,Overcast,350,2013-04-11 08:55:00
3:55 AM,24.1,19.9,84,29.92,4.0,North,10.4,-,0.00,Snow,Light Snow,360,2013-04-11 09:55:00
4:10 AM,24.8,19.4,80,29.84,10.0,North,11.5,-,0.00,,Overcast,350,2013-04-11 10:10:00
4:55 AM,23.0,19.0,85,29.88,10.0,NNW,10.4,-,0.00,,Overcast,340,2013-04-11 10:55:00
5:55 AM,23.0,19.0,85,29.87,10.0,North,12.7,-,N/A,,Overcast,350,2013-04-11 11:55:00
6:32 AM,24.8,21.2,86,29.81,10.0,North,13.8,-,N/A,,Overcast,350,2013-04-11 12:32:00
6:55 AM,24.1,21.0,88,29.88,8.0,North,13.8,-,N/A,,Overcast,350,2013-04-11 12:55:00
7:55 AM,25.0,21.0,85,29.88,10.0,North,17.3,-,0.00,,Overcast,360,2013-04-11 13:55:00
8:55 AM,26.1,21.0,81,29.88,10.0,NNW,15.0,-,N/A,,Overcast,330,2013-04-11 14:55:00
9:55 AM,26.1,21.0,81,29.88,10.0,NW,13.8,-,N/A,,Overcast,320,2013-04-11 15:55:00
10:55 AM,27.0,21.9,81,29.88,10.0,NNW,15.0,-,N/A,,Overcast,330,2013-04-11 16:55:00
11:55 AM,30.0,24.1,79,29.85,10.0,NNW,16.1,-,N/A,,Overcast,330,2013-04-11 17:55:00
12:04 PM,30.2,24.8,80,29.79,9.0,NNW,13.8,-,0.00,Snow,Light Snow,330,2013-04-11 18:04:00
12:55 PM,30.9,25.0,79,29.85,2.5,NNW,13.8,-,0.00,Snow,Light Snow,340,2013-04-11 18:55:00
1:14 PM,30.2,26.6,86,29.79,3.0,NNW,13.8,-,0.00,Snow,Light Snow,340,2013-04-11 19:14:00
1:25 PM,30.2,26.6,86,29.78,3.0,NNW,13.8,-,0.00,Snow,Light Snow,340,2013-04-11 19:25:00
1:55 PM,32.0,26.1,79,29.84,8.0,North,13.8,-,0.00,Snow,Light Snow,350,2013-04-11 19:55:00
2:55 PM,32.0,26.1,79,29.85,10.0,NNW,16.1,-,0.00,,Overcast,340,2013-04-11 20:55:00
3:07 PM,33.8,26.6,75,29.78,10.0,NNW,13.8,-,N/A,,Overcast,340,2013-04-11 21:07:00
3:28 PM,33.8,26.6,75,29.78,10.0,NNW,13.8,-,N/A,,Overcast,340,2013-04-11 21:28:00
3:55 PM,33.1,26.1,75,29.84,10.0,NNW,11.5,-,N/A,,Overcast,340,2013-04-11 21:55:00
4:42 PM,33.8,26.6,75,29.79,10.0,North,13.8,-,N/A,,Overcast,360,2013-04-11 22:42:00
4:55 PM,33.1,27.0,78,29.85,10.0,North,12.7,-,N/A,,Overcast,360,2013-04-11 22:55:00
5:55 PM,32.0,27.0,82,29.88,10.0,NNW,6.9,-,N/A,,Overcast,340,2013-04-11 23:55:00
6:55 PM,32.0,27.0,82,29.88,10.0,North,4.6,-,N/A,,Overcast,360,2013-04-12 00:55:00
7:02 PM,32.0,26.6,80,29.82,10.0,NNE,3.5,-,N/A,,Overcast,20,2013-04-12 01:02:00
7:33 PM,28.4,26.6,93,29.83,6.0,ENE,6.9,-,0.00,Snow,Light Snow,70,2013-04-12 01:33:00
7:55 PM,28.9,27.0,92,29.90,9.0,ENE,4.6,-,0.00,,Overcast,70,2013-04-12 01:55:00
8:55 PM,28.9,27.0,92,29.92,10.0,Calm,Calm,-,0.00,,Overcast,0,2013-04-12 02:55:00
9:55 PM,28.9,27.0,92,29.93,10.0,Calm,Calm,-,0.00,,Overcast,0,2013-04-12 03:55:00
10:11 PM,28.4,26.6,93,29.86,10.0,Calm,Calm,-,N/A,,Overcast,0,2013-04-12 04:11:00
10:55 PM,28.9,27.0,92,29.93,10.0,WNW,3.5,-,N/A,,Overcast,300,2013-04-12 04:55:00
11:55 PM,30.0,27.0,88,29.92,10.0,WNW,4.6,-,N/A,,Overcast,290,2013-04-12 05:55:00